createdAt,value
2023-04-21T00:01:48.706Z,93.14
2023-04-21T00:04:16.488Z,92.90
2023-04-21T00:06:44.397Z,92.42
2023-04-21T00:09:11.466Z,92.83
2023-04-21T00:11:38.309Z,93.14
2023-04-21T00:14:05.115Z,92.62
2023-04-21T00:16:32.076Z,92.10
2023-04-21T00:18:59.253Z,92.65
2023-04-21T00:21:26.770Z,92.15
2023-04-21T00:23:54.001Z,91.46
2023-04-21T00:26:20.990Z,90.83
2023-04-21T00:28:49.370Z,91.05
2023-04-21T00:31:16.641Z,91.88
2023-04-21T00:33:43.541Z,92.00
2023-04-21T00:36:10.412Z,92.02
2023-04-21T00:38:37.103Z,92.61
2023-04-21T00:41:04.868Z,92.46
2023-04-21T00:43:31.695Z,92.15
2023-04-21T00:45:58.589Z,91.61
2023-04-21T00:48:25.326Z,92.01
2023-04-21T00:50:52.202Z,92.48
2023-04-21T00:53:20.008Z,93.79
2023-04-21T00:55:47.256Z,93.73
2023-04-21T00:58:13.940Z,94.62
2023-04-21T01:00:40.725Z,93.43
2023-04-21T01:03:08.168Z,93.04
2023-04-21T01:05:35.161Z,93.81
2023-04-21T01:08:02.746Z,92.62
2023-04-21T01:10:29.422Z,91.27
2023-04-21T01:12:56.189Z,92.38
2023-04-21T01:15:23.048Z,93.92
2023-04-21T01:17:50.219Z,93.91
2023-04-21T01:20:16.918Z,94.29
2023-04-21T01:22:44.987Z,94.69
2023-04-21T01:25:12.970Z,94.08
2023-04-21T01:27:39.661Z,93.89
2023-04-21T01:30:08.871Z,93.89
2023-04-21T01:32:35.919Z,94.91
2023-04-21T01:35:03.260Z,94.47
2023-04-21T01:37:34.860Z,95.53
2023-04-21T01:40:07.079Z,94.90
2023-04-21T01:42:35.975Z,94.95
2023-04-21T01:45:03.189Z,93.55
2023-04-21T01:47:33.302Z,94.27
2023-04-21T01:50:00.150Z,94.05
2023-04-21T01:52:26.962Z,93.24
2023-04-21T01:54:54.781Z,93.68
2023-04-21T01:57:21.491Z,95.92
2023-04-21T01:59:51.135Z,98.54
2023-04-21T02:02:18.014Z,98.28
2023-04-21T02:04:44.736Z,98.24
2023-04-21T02:07:11.644Z,98.93
2023-04-21T02:09:40.417Z,100.00
2023-04-21T02:12:09.039Z,100.00
2023-04-21T02:14:37.602Z,100.00
2023-04-21T02:17:07.775Z,99.21
2023-04-21T02:19:34.469Z,98.55
2023-04-21T02:22:01.094Z,98.84
2023-04-21T02:24:28.446Z,98.58
2023-04-21T02:26:55.174Z,99.30
2023-04-21T02:29:21.991Z,98.45
2023-04-21T02:32:00.687Z,98.42
2023-04-21T02:34:32.215Z,98.55
2023-04-21T02:36:59.758Z,98.99
2023-04-21T02:39:26.855Z,97.60
2023-04-21T02:41:53.512Z,97.08
2023-04-21T02:44:21.284Z,98.86
2023-04-21T02:46:48.057Z,97.62
2023-04-21T02:49:14.776Z,97.92
2023-04-21T02:51:41.611Z,97.73
2023-04-21T02:54:08.484Z,97.28
2023-04-21T02:56:35.400Z,96.78
2023-04-21T02:59:02.017Z,97.30
2023-04-21T03:01:28.943Z,98.14
2023-04-21T03:03:55.779Z,98.78
2023-04-21T03:06:22.906Z,98.06
2023-04-21T03:08:49.667Z,98.12
2023-04-21T03:11:16.365Z,98.96
2023-04-21T03:13:43.078Z,98.98
2023-04-21T03:16:09.798Z,99.87
2023-04-21T03:18:36.570Z,98.05
2023-04-21T03:21:03.524Z,98.40
2023-04-21T03:23:30.649Z,100.00
2023-04-21T03:25:57.504Z,100.00
2023-04-21T03:28:24.218Z,100.00
2023-04-21T03:30:51.974Z,100.00
2023-04-21T03:33:18.772Z,100.00
2023-04-21T03:35:45.972Z,100.00
2023-04-21T03:38:12.759Z,100.00
2023-04-21T03:40:39.409Z,100.00
2023-04-21T03:43:06.627Z,100.00
2023-04-21T03:45:36.052Z,100.00
2023-04-21T03:48:03.736Z,100.00
2023-04-21T03:50:30.661Z,100.00
2023-04-21T03:52:57.968Z,100.00
2023-04-21T03:55:24.678Z,100.00
2023-04-21T03:57:51.513Z,100.00
2023-04-21T04:00:18.256Z,100.00
2023-04-21T04:02:45.339Z,100.00
2023-04-21T04:05:12.252Z,100.00
2023-04-21T04:07:39.002Z,100.00
2023-04-21T04:10:06.009Z,100.00
2023-04-21T04:12:32.716Z,100.00
2023-04-21T04:14:59.385Z,100.00
2023-04-21T04:17:26.293Z,100.00
2023-04-21T04:19:53.034Z,100.00
2023-04-21T04:22:20.595Z,100.00
2023-04-21T04:24:47.916Z,100.00
2023-04-21T04:27:14.655Z,100.00
2023-04-21T04:29:41.469Z,100.00
2023-04-21T04:32:11.073Z,100.00
2023-04-21T04:34:38.219Z,100.00
2023-04-21T04:37:04.910Z,100.00
2023-04-21T04:39:32.149Z,100.00
2023-04-21T04:41:59.367Z,100.00
2023-04-21T04:44:26.005Z,100.00
2023-04-21T04:46:54.091Z,100.00
2023-04-21T04:49:21.737Z,100.00
2023-04-21T04:51:50.515Z,100.00
2023-04-21T04:54:17.332Z,100.00
2023-04-21T04:56:45.362Z,100.00
2023-04-21T04:59:12.302Z,100.00
2023-04-21T05:01:40.596Z,100.00
2023-04-21T05:04:07.537Z,100.00
2023-04-21T05:06:34.438Z,100.00
2023-04-21T05:09:01.344Z,100.00
2023-04-21T05:11:28.179Z,100.00
2023-04-21T05:13:54.911Z,100.00
2023-04-21T05:16:21.584Z,99.32
2023-04-21T05:18:50.983Z,100.00
2023-04-21T05:21:27.614Z,99.92
2023-04-21T05:23:58.805Z,99.92
2023-04-21T05:26:27.476Z,100.00
2023-04-21T05:28:58.871Z,100.00
2023-04-21T05:31:26.328Z,100.00
2023-04-21T05:33:53.469Z,100.00
2023-04-21T05:36:20.593Z,100.00
2023-04-21T05:38:47.793Z,100.00
2023-04-21T05:41:14.849Z,99.46
2023-04-21T05:43:41.608Z,100.00
2023-04-21T05:46:10.133Z,99.67
2023-04-21T05:48:37.082Z,100.00
2023-04-21T05:51:11.044Z,99.26
2023-04-21T05:53:39.196Z,100.00
2023-04-21T05:56:08.308Z,100.00
2023-04-21T05:58:35.919Z,100.00
2023-04-21T06:01:02.823Z,98.42
2023-04-21T06:03:33.425Z,99.79
2023-04-21T06:06:02.269Z,99.61
2023-04-21T06:08:29.416Z,98.81
2023-04-21T06:10:56.223Z,98.80
2023-04-21T06:13:22.977Z,97.41
2023-04-21T06:15:49.655Z,97.77
2023-04-21T06:18:17.002Z,99.20
2023-04-21T06:20:50.628Z,100.00
2023-04-21T06:23:17.648Z,99.78
2023-04-21T06:25:44.348Z,100.00
2023-04-21T06:28:11.534Z,99.28
2023-04-21T06:30:38.256Z,99.54
2023-04-21T06:33:06.647Z,97.31
2023-04-21T06:35:34.544Z,97.46
2023-04-21T06:38:01.358Z,95.82
2023-04-21T06:40:28.098Z,94.91
2023-04-21T06:42:54.777Z,93.08
2023-04-21T06:45:21.486Z,92.01
2023-04-21T06:47:48.240Z,92.12
2023-04-21T06:50:14.984Z,90.95
2023-04-21T06:52:41.604Z,90.97
2023-04-21T06:55:08.565Z,89.54
2023-04-21T06:57:35.594Z,91.41
2023-04-21T07:00:02.639Z,93.52
2023-04-21T07:02:33.555Z,93.14
2023-04-21T07:05:00.343Z,94.37
2023-04-21T07:07:27.150Z,94.39
2023-04-21T07:09:53.791Z,95.19
2023-04-21T07:12:20.663Z,96.87
2023-04-21T07:14:47.699Z,96.05
2023-04-21T07:17:14.352Z,97.04
2023-04-21T07:19:41.236Z,96.93
2023-04-21T07:22:08.009Z,97.79
2023-04-21T07:24:35.499Z,97.89
2023-04-21T07:27:04.952Z,96.70
2023-04-21T07:29:31.806Z,97.65
2023-04-21T07:31:58.553Z,95.65
2023-04-21T07:34:25.661Z,92.59
2023-04-21T07:36:52.800Z,91.03
2023-04-21T07:39:19.675Z,89.39
2023-04-21T07:41:46.521Z,87.63
2023-04-21T07:44:13.369Z,89.03
2023-04-21T07:46:40.375Z,87.84
2023-04-21T07:49:07.210Z,87.84
2023-04-21T07:51:33.869Z,86.99
2023-04-21T07:54:00.663Z,85.51
2023-04-21T07:56:27.497Z,83.80
2023-04-21T07:58:54.149Z,82.30
2023-04-21T08:01:21.015Z,82.39
2023-04-21T08:03:47.989Z,82.74
2023-04-21T08:06:15.052Z,82.14
2023-04-21T08:08:41.868Z,80.30
2023-04-21T08:11:10.468Z,80.66
2023-04-21T08:13:38.006Z,81.69
2023-04-21T08:16:05.099Z,77.60
2023-04-21T08:18:31.810Z,77.78
2023-04-21T08:20:58.610Z,78.98
2023-04-21T08:23:25.608Z,77.64
2023-04-21T08:25:52.350Z,77.35
2023-04-21T08:28:19.024Z,75.97
2023-04-21T08:30:45.881Z,73.17
2023-04-21T08:33:13.977Z,73.82
2023-04-21T08:35:54.793Z,74.00
2023-04-21T08:38:29.575Z,75.24
2023-04-21T08:40:59.571Z,74.41
2023-04-21T08:43:26.658Z,73.09
2023-04-21T08:45:56.047Z,73.96
2023-04-21T08:48:24.146Z,74.07
2023-04-21T08:50:51.682Z,73.18
2023-04-21T08:53:18.392Z,72.87
2023-04-21T08:55:49.289Z,70.89
2023-04-21T08:58:17.979Z,70.51
2023-04-21T09:00:44.742Z,71.00
2023-04-21T09:03:23.281Z,71.86
2023-04-21T09:06:05.510Z,70.71
2023-04-21T09:08:33.848Z,68.64
2023-04-21T09:11:01.689Z,69.69
2023-04-21T09:13:34.688Z,68.02
2023-04-21T09:16:05.660Z,68.87
2023-04-21T09:18:37.315Z,67.24
2023-04-21T09:21:17.367Z,68.81
2023-04-21T09:23:49.867Z,68.07
2023-04-21T09:26:18.941Z,68.02
2023-04-21T09:28:47.847Z,66.46
2023-04-21T09:31:20.228Z,67.61
2023-04-21T09:33:57.674Z,68.46
2023-04-21T09:36:28.039Z,66.38
2023-04-21T09:39:13.093Z,66.11
2023-04-21T09:41:44.228Z,65.96
2023-04-21T09:44:10.924Z,65.51
2023-04-21T09:46:38.383Z,65.51
2023-04-21T09:49:06.383Z,65.29
2023-04-21T09:54:29.770Z,64.29
2023-04-21T09:57:01.681Z,63.23
2023-04-21T09:59:35.906Z,65.36
2023-04-21T10:02:07.483Z,63.40
2023-04-21T10:04:37.296Z,64.35
2023-04-21T10:07:04.657Z,64.06
2023-04-21T10:09:38.878Z,64.19
2023-04-21T10:12:09.015Z,63.43
2023-04-21T10:14:36.367Z,64.24
2023-04-21T10:17:08.552Z,64.54
2023-04-21T10:19:39.904Z,62.84
2023-04-21T10:22:11.036Z,64.15
2023-04-21T10:24:40.328Z,63.95
2023-04-21T10:27:11.610Z,64.49
2023-04-21T10:29:55.528Z,65.13
2023-04-21T10:32:41.516Z,65.52
2023-04-21T10:35:13.681Z,65.28
2023-04-21T10:37:42.283Z,65.25
2023-04-21T10:40:44.366Z,64.86
2023-04-21T10:43:49.578Z,64.50
2023-04-21T10:46:36.527Z,65.19
2023-04-21T10:49:06.358Z,64.43
2023-04-21T10:51:33.024Z,64.22
2023-04-21T10:53:59.669Z,64.75
2023-04-21T10:56:26.266Z,64.87
2023-04-21T10:58:53.279Z,64.30
2023-04-21T11:01:20.132Z,63.31
2023-04-21T11:03:47.057Z,65.38
2023-04-21T11:06:18.498Z,64.07
2023-04-21T11:08:57.870Z,62.85
2023-04-21T11:11:24.746Z,63.45
2023-04-21T11:13:53.226Z,63.56
2023-04-21T11:16:20.796Z,64.49
2023-04-21T11:18:47.862Z,62.49
2023-04-21T11:21:21.538Z,62.32
2023-04-21T11:23:50.493Z,61.85
2023-04-21T11:26:17.952Z,62.45
2023-04-21T11:28:47.949Z,60.92
2023-04-21T11:31:15.589Z,61.05
2023-04-21T11:33:42.370Z,61.52
2023-04-21T11:36:24.657Z,62.28
2023-04-21T11:38:51.610Z,61.53
2023-04-21T11:41:22.968Z,62.27
2023-04-21T11:43:51.230Z,62.19
2023-04-21T11:46:27.407Z,61.67
2023-04-21T11:49:04.896Z,61.42
2023-04-21T11:51:36.578Z,60.88
2023-04-21T11:54:06.766Z,62.44
2023-04-21T11:56:38.584Z,60.17
2023-04-21T11:59:08.768Z,61.75
2023-04-21T12:01:42.296Z,58.92
2023-04-21T12:04:14.821Z,59.48
2023-04-21T12:06:41.952Z,59.62
2023-04-21T12:09:08.731Z,59.89
2023-04-21T12:11:35.955Z,59.50
2023-04-21T12:14:02.665Z,60.33
2023-04-21T12:16:29.530Z,58.60
2023-04-21T12:18:57.013Z,59.08
2023-04-21T12:21:28.779Z,59.58
2023-04-21T12:23:55.553Z,59.41
2023-04-21T12:26:23.860Z,59.76
2023-04-21T12:28:51.747Z,60.03
2023-04-21T12:31:19.079Z,59.46
2023-04-21T12:33:46.055Z,59.76
2023-04-21T12:36:12.839Z,58.97
2023-04-21T12:38:39.635Z,58.88
2023-04-21T12:41:06.320Z,61.71
2023-04-21T12:43:33.031Z,59.63
2023-04-21T12:46:00.008Z,60.20
2023-04-21T12:48:26.791Z,59.77
2023-04-21T12:50:53.490Z,59.78
2023-04-21T12:53:20.258Z,59.89
2023-04-21T12:55:56.828Z,59.37
2023-04-21T12:58:28.033Z,58.01
2023-04-21T13:00:55.562Z,57.87
2023-04-21T13:03:22.404Z,58.27
2023-04-21T13:05:49.155Z,57.72
2023-04-21T13:08:16.498Z,57.63
2023-04-21T13:10:43.264Z,58.27
2023-04-21T13:13:09.973Z,56.58
2023-04-21T13:15:36.777Z,55.88
2023-04-21T13:18:03.528Z,56.72
2023-04-21T13:20:31.270Z,56.51
2023-04-21T13:22:58.101Z,56.90
2023-04-21T13:25:24.814Z,56.04
2023-04-21T13:27:53.345Z,56.56
2023-04-21T13:30:20.306Z,56.94
2023-04-21T13:32:48.500Z,57.63
2023-04-21T13:35:15.249Z,56.77
2023-04-21T13:37:42.211Z,55.96
2023-04-21T13:40:09.997Z,56.60
2023-04-21T13:42:39.325Z,55.78
2023-04-21T13:45:06.559Z,55.11
2023-04-21T13:47:33.962Z,54.77
2023-04-21T13:50:01.026Z,53.99
2023-04-21T13:52:27.775Z,53.11
2023-04-21T13:54:54.604Z,53.96
2023-04-21T13:57:21.361Z,53.20
2023-04-21T13:59:48.090Z,52.43
2023-04-21T14:02:14.860Z,52.06
2023-04-21T14:04:42.035Z,52.29
2023-04-21T14:07:09.078Z,51.98
2023-04-21T14:09:36.047Z,52.89
2023-04-21T14:12:03.572Z,52.09
2023-04-21T14:14:38.565Z,53.12
2023-04-21T14:17:07.287Z,53.34
2023-04-21T14:19:35.591Z,53.01
2023-04-21T14:22:02.598Z,50.87
2023-04-21T14:24:32.124Z,49.80
2023-04-21T14:26:59.216Z,49.38
2023-04-21T14:29:25.941Z,49.65
2023-04-21T14:31:53.881Z,48.67
2023-04-21T14:34:20.554Z,48.54
2023-04-21T14:36:49.846Z,48.77
2023-04-21T14:39:16.800Z,47.73
2023-04-21T14:41:43.434Z,48.25
2023-04-21T14:44:10.294Z,48.07
2023-04-21T14:46:37.256Z,46.96
2023-04-21T14:49:04.267Z,46.46
2023-04-21T14:51:31.935Z,44.96
2023-04-21T14:53:58.664Z,44.56
2023-04-21T14:56:25.483Z,39.54
2023-04-21T14:58:52.220Z,28.26
2023-04-21T15:01:19.267Z,22.94
2023-04-21T15:03:46.288Z,20.07
2023-04-21T15:06:13.109Z,19.87
2023-04-21T15:08:41.059Z,19.42
2023-04-21T15:11:08.039Z,17.75
2023-04-21T15:13:34.781Z,16.22
2023-04-21T15:16:01.414Z,15.58
2023-04-21T15:18:28.071Z,14.99
2023-04-21T15:20:55.330Z,14.59
2023-04-21T15:23:22.001Z,13.93
2023-04-21T15:25:48.668Z,20.27
2023-04-21T15:28:15.324Z,27.54
2023-04-21T15:30:42.111Z,31.66
2023-04-21T15:33:08.877Z,35.09
2023-04-21T15:35:36.292Z,36.31
2023-04-21T15:38:03.165Z,38.30
2023-04-21T15:40:30.228Z,39.74
2023-04-21T15:42:56.863Z,41.18
2023-04-21T15:45:23.543Z,41.74
2023-04-21T15:47:50.456Z,40.64
2023-04-21T15:50:17.318Z,41.94
2023-04-21T15:52:44.305Z,42.04
2023-04-21T15:55:12.043Z,41.69
2023-04-21T15:57:39.677Z,41.20
2023-04-21T16:00:07.377Z,42.07
2023-04-21T16:02:35.965Z,42.78
2023-04-21T16:05:03.148Z,44.15
2023-04-21T16:07:31.683Z,44.68
2023-04-21T16:09:58.538Z,44.61
2023-04-21T16:12:25.444Z,44.80
2023-04-21T16:14:57.686Z,45.27
2023-04-21T16:17:32.620Z,45.21
2023-04-21T16:19:59.335Z,45.20
2023-04-21T16:22:26.218Z,46.13
2023-04-21T16:24:53.259Z,46.56
2023-04-21T16:27:20.350Z,47.37
2023-04-21T16:29:47.319Z,47.84
2023-04-21T16:32:13.981Z,48.73
2023-04-21T16:34:41.539Z,49.08
2023-04-21T16:37:08.689Z,49.51
2023-04-21T16:39:35.698Z,49.33
2023-04-21T16:42:02.380Z,51.91
2023-04-21T16:44:29.021Z,52.61
2023-04-21T16:46:55.826Z,52.98
2023-04-21T16:49:22.848Z,52.64
2023-04-21T16:51:49.540Z,54.04
2023-04-21T16:54:16.215Z,55.92
2023-04-21T16:56:43.551Z,57.04
2023-04-21T16:59:10.542Z,58.60
2023-04-21T17:01:37.358Z,61.99
2023-04-21T17:04:04.447Z,62.54
2023-04-21T17:06:31.880Z,63.40
2023-04-21T17:09:01.587Z,65.07
2023-04-21T17:11:29.876Z,65.38
2023-04-21T17:13:56.617Z,64.01
2023-04-21T17:16:23.330Z,61.44
2023-04-21T17:18:50.101Z,61.03
2023-04-21T17:21:16.987Z,61.89
2023-04-21T17:23:43.670Z,61.33
2023-04-21T17:26:12.914Z,62.26
2023-04-21T17:28:40.028Z,61.02
2023-04-21T17:31:15.002Z,63.63
2023-04-21T17:33:44.127Z,63.33
2023-04-21T17:36:11.562Z,62.74
2023-04-21T17:38:38.352Z,62.92
2023-04-21T17:41:06.777Z,61.01
2023-04-21T17:43:33.528Z,61.65
2023-04-21T17:46:00.478Z,60.07
2023-04-21T17:48:27.327Z,62.03
2023-04-21T17:50:54.051Z,61.54
2023-04-21T17:53:21.313Z,60.86
2023-04-21T17:55:48.092Z,61.94
2023-04-21T17:58:14.948Z,63.54
2023-04-21T18:00:41.728Z,60.53
2023-04-21T18:03:08.559Z,61.69
2023-04-21T18:05:35.647Z,60.44
2023-04-21T18:08:03.001Z,59.78
2023-04-21T18:10:30.064Z,58.41
2023-04-21T18:12:57.908Z,61.18
2023-04-21T18:15:24.752Z,62.48
2023-04-21T18:17:53.064Z,63.78
2023-04-21T18:20:20.155Z,64.68
2023-04-21T18:22:50.115Z,66.17
2023-04-21T18:25:27.348Z,66.91
2023-04-21T18:28:04.965Z,65.94
2023-04-21T18:30:31.666Z,66.29
2023-04-21T18:32:58.560Z,65.72
2023-04-21T18:35:25.216Z,65.55
2023-04-21T18:37:51.961Z,65.52
2023-04-21T18:40:18.726Z,65.36
2023-04-21T18:42:46.602Z,65.60
2023-04-21T18:45:13.451Z,67.35
2023-04-21T18:47:40.526Z,67.83
2023-04-21T18:50:10.315Z,68.78
2023-04-21T18:52:37.018Z,70.35
2023-04-21T18:55:04.335Z,71.46
2023-04-21T18:57:31.237Z,71.54
2023-04-21T18:59:59.170Z,72.73
2023-04-21T19:02:26.036Z,72.41
2023-04-21T19:04:53.282Z,72.51
2023-04-21T19:07:20.072Z,73.05
2023-04-21T19:09:47.746Z,71.19
2023-04-21T19:12:14.652Z,70.16
2023-04-21T19:14:47.300Z,69.25
2023-04-21T19:17:15.551Z,68.67
2023-04-21T19:19:42.454Z,67.45
2023-04-21T19:22:09.261Z,68.31
2023-04-21T19:24:36.092Z,69.71
2023-04-21T19:27:03.480Z,69.63
2023-04-21T19:29:31.320Z,69.81
2023-04-21T19:31:58.756Z,69.82
2023-04-21T19:34:25.565Z,70.49
2023-04-21T19:36:52.868Z,71.00
2023-04-21T19:39:19.806Z,71.26
2023-04-21T19:41:46.459Z,71.50
2023-04-21T19:44:13.170Z,72.16
2023-04-21T19:46:42.673Z,72.95
2023-04-21T19:49:13.248Z,73.13
2023-04-21T19:51:41.189Z,74.08
2023-04-21T19:54:11.820Z,74.39
2023-04-21T19:56:40.817Z,74.17
2023-04-21T19:59:07.764Z,73.75
2023-04-21T20:01:34.604Z,73.48
2023-04-21T20:04:02.608Z,74.72
2023-04-21T20:06:29.649Z,74.21
2023-04-21T20:08:56.502Z,73.30
2023-04-21T20:11:23.522Z,73.10
2023-04-21T20:13:50.507Z,74.13
2023-04-21T20:16:18.225Z,73.94
2023-04-21T20:18:45.037Z,74.53
2023-04-21T20:21:11.853Z,75.13
2023-04-21T20:23:38.471Z,73.19
2023-04-21T20:26:05.166Z,72.64
2023-04-21T20:28:32.988Z,72.30
2023-04-21T20:30:59.854Z,72.27
2023-04-21T20:33:27.287Z,73.08
2023-04-21T20:35:54.279Z,72.36
2023-04-21T20:38:23.888Z,72.54
2023-04-21T20:40:53.768Z,72.08
2023-04-21T20:43:20.636Z,72.09
2023-04-21T20:45:47.559Z,72.91
2023-04-21T20:48:14.540Z,71.48
2023-04-21T20:50:42.773Z,71.82
2023-04-21T20:53:11.528Z,71.56
2023-04-21T20:55:38.210Z,72.12
2023-04-21T20:58:05.014Z,72.38
2023-04-21T21:00:34.154Z,71.72
2023-04-21T21:03:01.502Z,72.28
2023-04-21T21:05:33.439Z,72.01
2023-04-21T21:08:00.276Z,72.96
2023-04-21T21:10:28.460Z,72.88
2023-04-21T21:12:55.225Z,72.71
2023-04-21T21:15:21.914Z,73.86
2023-04-21T21:17:48.688Z,75.09
2023-04-21T21:20:15.435Z,74.93
2023-04-21T21:22:43.253Z,74.48
2023-04-21T21:25:10.511Z,75.02
2023-04-21T21:27:37.300Z,75.65
2023-04-21T21:30:04.396Z,75.12
2023-04-21T21:32:31.514Z,75.40
2023-04-21T21:34:58.224Z,75.98
2023-04-21T21:37:26.534Z,75.57
2023-04-21T21:39:55.267Z,75.57
2023-04-21T21:42:22.595Z,75.31
2023-04-21T21:44:49.413Z,75.06
2023-04-21T21:47:17.468Z,76.00
2023-04-21T21:49:44.433Z,76.59
2023-04-21T21:52:11.523Z,77.04
2023-04-21T21:54:38.324Z,77.70
2023-04-21T21:57:05.046Z,78.48
2023-04-21T21:59:31.831Z,79.03
2023-04-21T22:01:58.506Z,79.16
2023-04-21T22:04:25.237Z,78.96
2023-04-21T22:06:51.926Z,79.85
2023-04-21T22:09:19.119Z,80.36
2023-04-21T22:11:46.208Z,80.89
2023-04-21T22:14:22.617Z,81.02
2023-04-21T22:16:53.019Z,81.04
2023-04-21T22:19:20.792Z,80.68
2023-04-21T22:21:47.947Z,80.68
2023-04-21T22:24:15.125Z,79.94
2023-04-21T22:26:43.115Z,80.61
2023-04-21T22:29:10.239Z,80.11
2023-04-21T22:31:37.887Z,80.29
2023-04-21T22:34:04.821Z,79.71
2023-04-21T22:36:32.555Z,80.30
2023-04-21T22:38:59.880Z,80.69
2023-04-21T22:41:27.697Z,80.92
2023-04-21T22:43:54.461Z,81.24
2023-04-21T22:46:21.384Z,80.94
2023-04-21T22:48:48.720Z,80.58
2023-04-21T22:51:15.409Z,80.60
2023-04-21T22:53:42.027Z,80.86
2023-04-21T22:56:08.685Z,81.74
2023-04-21T22:58:35.801Z,82.41
2023-04-21T23:01:02.780Z,83.32
2023-04-21T23:03:31.124Z,83.84
2023-04-21T23:05:58.735Z,84.51
2023-04-21T23:08:25.370Z,85.11
2023-04-21T23:10:52.576Z,85.47
2023-04-21T23:13:19.214Z,85.74
2023-04-21T23:15:45.904Z,86.03
2023-04-21T23:18:12.546Z,84.83
2023-04-21T23:20:39.338Z,85.16
2023-04-21T23:23:06.433Z,85.25
2023-04-21T23:25:33.253Z,84.86
2023-04-21T23:27:59.967Z,83.94
2023-04-21T23:30:26.617Z,83.31
2023-04-21T23:32:53.363Z,84.00
2023-04-21T23:35:20.126Z,83.38
2023-04-21T23:37:46.789Z,83.72
2023-04-21T23:40:13.630Z,83.40
2023-04-21T23:42:40.610Z,83.86
2023-04-21T23:45:07.913Z,83.43
2023-04-21T23:47:34.567Z,82.88
2023-04-21T23:50:01.443Z,82.44
2023-04-21T23:52:30.494Z,82.06
2023-04-21T23:54:57.360Z,82.93
2023-04-21T23:57:23.988Z,82.71
2023-04-21T23:59:50.614Z,81.11
